Crystal Symphony — C6MY5 — position and weather

sailwx.info

Track history (hours):
 
Tides and Currents Weather Stations Pressure Air Temp Water Temp Dewpoint Dewpoint Depression Visibility Wind Speed Wind Dir Waves Ship Positions

Crystal Symphony

Operator: Crystal Cruises

Last reported at 2014-Dec-20 00:17 UTC. Time now 2014-Dec-20 01:34 UTC.
Position N 01°16' E 103°52'.

Length 238 m; draft 8 m.

Type: Ship. MMSI: 309168000.

Date/timePositionNaut miles runAvg speedWind from/ knotsBaromVisibWave heightAir tempDewpointWater temp
2014-Dec-20 00:17N 01°16' E 103°52'0 0.0
2014-Dec-19 23:19N 01°16' E 103°52'4 5.0
2014-Dec-19 22:33N 01°13' E 103°54'7013.3
2014-Dec-19 17:15N 01°38' E 102°48'1116.2
2014-Dec-19 16:32N 01°43' E 102°38'1916.4
2014-Dec-19 15:22N 01°52' E 102°20'  
2014-Dec-14 09:18N 02°10' E 102°14'0 0.3
2014-Dec-14 08:06N 02°10' E 102°14'7 0.8
2014-Dec-13 23:33N 02°03' E 102°15'1917.3
2014-Dec-13 22:26N 01°52' E 102°30'8816.8
2014-Dec-13 17:12N 01°10' E 103°47'1117.8
2014-Dec-13 16:33N 01°15' E 103°58'  
Track history (hours):
 
Tides and Currents Weather Stations Pressure Air Temp Water Temp Dewpoint Dewpoint Depression Visibility Wind Speed Wind Dir Waves Ship Positions

Crystal Symphony

Operator: Crystal Cruises

Last reported at 2014-Dec-20 00:17 UTC. Time now 2014-Dec-20 01:34 UTC.
Position N 01°16' E 103°52'.

Length 238 m; draft 8 m.

Type: Ship. MMSI: 309168000.

Date/timePositionNaut miles runAvg speedWind from/ knotsBaromVisibWave heightAir tempDewpointWater temp
2014-Dec-20 00:17N 01°16' E 103°52'0 0.0
2014-Dec-19 23:19N 01°16' E 103°52'4 5.0
2014-Dec-19 22:33N 01°13' E 103°54'7013.3
2014-Dec-19 17:15N 01°38' E 102°48'1116.2
2014-Dec-19 16:32N 01°43' E 102°38'1916.4
2014-Dec-19 15:22N 01°52' E 102°20'  
2014-Dec-14 09:18N 02°10' E 102°14'0 0.3
2014-Dec-14 08:06N 02°10' E 102°14'7 0.8
2014-Dec-13 23:33N 02°03' E 102°15'1917.3
2014-Dec-13 22:26N 01°52' E 102°30'8816.8
2014-Dec-13 17:12N 01°10' E 103°47'1117.8
2014-Dec-13 16:33N 01°15' E 103°58'  

Dump ship's entire track history